Terminal Aerodrome Forecast
Issued by NWS New Orleans/Baton Rouge, LA

Home | Current Version | Previous Version | Text Only | Print | Product List | Glossary On
Versions: 1 2 3 4 5 6 7 8 9 10 11 12 13
000
FTUS44 KLIX 301700 RRA
TAFBTR
TAF
KBTR 301759Z 3018/3118 19007KT 6SM SHRA OVC020
      TEMPO 3018/3022 VRB15G25KT 2SM TSRA BKN020CB
     FM302300 19007KT P6SM SCT020 OVC070
     FM310000 17006KT P6SM BKN090
     FM310100 17006KT P6SM BKN090=

USA.gov is the U.S. government's official web portal to all federal, state and local government web resources and services.